sensor_id;sensor_type;location;lat;lon;timestamp;pressure;altitude;pressure_sealevel;temperature;humidity
7662;BME280;30314;48.184;11.510;2023-06-14T00:01:02;95444.78;;;12.47;61.36
7662;BME280;30314;48.184;11.510;2023-06-14T00:03:29;95441.78;;;12.49;61.30
7662;BME280;30314;48.184;11.510;2023-06-14T00:05:58;95445.34;;;12.35;62.64
7662;BME280;30314;48.184;11.510;2023-06-14T00:08:25;95445.50;;;12.39;62.50
7662;BME280;30314;48.184;11.510;2023-06-14T00:10:52;95447.84;;;12.32;62.70
7662;BME280;30314;48.184;11.510;2023-06-14T00:13:19;95447.84;;;12.32;63.18
7662;BME280;30314;48.184;11.510;2023-06-14T00:15:46;95446.56;;;12.20;63.86
7662;BME280;30314;48.184;11.510;2023-06-14T00:18:13;95445.59;;;12.16;65.14
7662;BME280;30314;48.184;11.510;2023-06-14T00:20:39;95449.03;;;12.17;64.97
7662;BME280;30314;48.184;11.510;2023-06-14T00:23:09;95449.50;;;12.19;65.19
7662;BME280;30314;48.184;11.510;2023-06-14T00:25:35;95443.09;;;12.11;66.02
7662;BME280;30314;48.184;11.510;2023-06-14T00:28:02;95442.13;;;12.07;66.65
7662;BME280;30314;48.184;11.510;2023-06-14T00:30:29;95437.88;;;11.97;66.83
7662;BME280;30314;48.184;11.510;2023-06-14T00:32:57;95442.84;;;11.90;66.79
7662;BME280;30314;48.184;11.510;2023-06-14T00:35:25;95437.56;;;11.98;67.27
7662;BME280;30314;48.184;11.510;2023-06-14T00:37:52;95437.88;;;11.97;67.07
7662;BME280;30314;48.184;11.510;2023-06-14T00:40:21;95441.56;;;11.87;68.37
7662;BME280;30314;48.184;11.510;2023-06-14T00:42:48;95434.19;;;11.75;68.92
7662;BME280;30314;48.184;11.510;2023-06-14T00:45:15;95435.09;;;11.70;69.94
7662;BME280;30314;48.184;11.510;2023-06-14T00:47:43;95444.78;;;11.75;70.25
7662;BME280;30314;48.184;11.510;2023-06-14T00:50:11;95440.25;;;11.76;69.92
7662;BME280;30314;48.184;11.510;2023-06-14T00:52:39;95434.31;;;11.70;70.71
7662;BME280;30314;48.184;11.510;2023-06-14T00:55:06;95439.44;;;11.66;71.00
7662;BME280;30314;48.184;11.510;2023-06-14T00:57:32;95448.63;;;11.69;70.31
7662;BME280;30314;48.184;11.510;2023-06-14T00:59:59;95450.59;;;11.63;71.20
7662;BME280;30314;48.184;11.510;2023-06-14T01:02:26;95438.06;;;11.46;72.59
7662;BME280;30314;48.184;11.510;2023-06-14T01:04:53;95446.59;;;11.43;72.91
7662;BME280;30314;48.184;11.510;2023-06-14T01:12:58;95446.06;;;11.32;73.64
7662;BME280;30314;48.184;11.510;2023-06-14T01:15:30;95442.66;;;11.32;73.96
7662;BME280;30314;48.184;11.510;2023-06-14T01:17:58;95446.28;;;11.22;74.94
7662;BME280;30314;48.184;11.510;2023-06-14T01:20:32;95439.75;;;11.19;74.40
7662;BME280;30314;48.184;11.510;2023-06-14T01:22:59;95445.13;;;11.14;74.49
7662;BME280;30314;48.184;11.510;2023-06-14T01:25:26;95440.66;;;11.15;74.89
7662;BME280;30314;48.184;11.510;2023-06-14T01:28:00;95433.69;;;11.05;75.72
7662;BME280;30314;48.184;11.510;2023-06-14T01:30:29;95438.00;;;11.00;75.39
7662;BME280;30314;48.184;11.510;2023-06-14T01:32:57;95435.84;;;11.03;75.47
7662;BME280;30314;48.184;11.510;2023-06-14T01:35:25;95436.16;;;11.01;74.74
7662;BME280;30314;48.184;11.510;2023-06-14T01:37:54;95435.97;;;10.97;74.72
7662;BME280;30314;48.184;11.510;2023-06-14T01:40:21;95436.50;;;11.08;73.85
7662;BME280;30314;48.184;11.510;2023-06-14T01:42:49;95432.72;;;11.00;74.44
7662;BME280;30314;48.184;11.510;2023-06-14T01:45:17;95432.06;;;10.95;74.04
7662;BME280;30314;48.184;11.510;2023-06-14T01:47:45;95427.84;;;10.94;74.88
7662;BME280;30314;48.184;11.510;2023-06-14T01:50:14;95428.53;;;10.99;75.31
7662;BME280;30314;48.184;11.510;2023-06-14T01:52:42;95425.53;;;10.92;75.50
7662;BME280;30314;48.184;11.510;2023-06-14T01:55:09;95426.41;;;10.88;76.28
7662;BME280;30314;48.184;11.510;2023-06-14T01:57:37;95428.63;;;10.94;75.75
7662;BME280;30314;48.184;11.510;2023-06-14T02:00:05;95432.06;;;10.95;76.49
7662;BME280;30314;48.184;11.510;2023-06-14T02:02:38;95425.63;;;10.87;77.11
7662;BME280;30314;48.184;11.510;2023-06-14T02:05:06;95425.81;;;10.77;78.65
7662;BME280;30314;48.184;11.510;2023-06-14T02:07:33;95427.78;;;10.71;79.54
7662;BME280;30314;48.184;11.510;2023-06-14T02:09:59;95429.78;;;10.65;80.20
7662;BME280;30314;48.184;11.510;2023-06-14T02:12:26;95432.03;;;10.58;80.93
7662;BME280;30314;48.184;11.510;2023-06-14T02:14:53;95438.47;;;10.52;81.46
7662;BME280;30314;48.184;11.510;2023-06-14T02:17:22;95433.72;;;10.54;81.15
7662;BME280;30314;48.184;11.510;2023-06-14T02:19:49;95430.75;;;10.55;80.57
7662;BME280;30314;48.184;11.510;2023-06-14T02:22:16;95424.63;;;10.46;81.56
7662;BME280;30314;48.184;11.510;2023-06-14T02:24:43;95425.38;;;10.47;81.51
7662;BME280;30314;48.184;11.510;2023-06-14T02:27:10;95423.06;;;10.31;81.95
7662;BME280;30314;48.184;11.510;2023-06-14T02:29:36;95427.94;;;10.24;83.06
7662;BME280;30314;48.184;11.510;2023-06-14T02:32:06;95421.00;;;10.28;83.24
7662;BME280;30314;48.184;11.510;2023-06-14T02:34:34;95433.63;;;10.31;83.34
7662;BME280;30314;48.184;11.510;2023-06-14T02:37:01;95431.66;;;10.23;84.34
7662;BME280;30314;48.184;11.510;2023-06-14T02:39:29;95427.25;;;10.18;85.37
7662;BME280;30314;48.184;11.510;2023-06-14T02:41:56;95430.97;;;10.17;85.06
7662;BME280;30314;48.184;11.510;2023-06-14T02:44:26;95429.50;;;10.11;85.72
7662;BME280;30314;48.184;11.510;2023-06-14T02:46:54;95435.28;;;10.13;85.72
7662;BME280;30314;48.184;11.510;2023-06-14T02:49:22;95437.44;;;10.11;86.12
7662;BME280;30314;48.184;11.510;2023-06-14T02:51:49;95441.25;;;10.19;86.18
7662;BME280;30314;48.184;11.510;2023-06-14T02:54:15;95433.44;;;10.13;86.11
7662;BME280;30314;48.184;11.510;2023-06-14T02:56:43;95433.31;;;10.05;86.46
7662;BME280;30314;48.184;11.510;2023-06-14T02:59:10;95430.00;;;9.99;87.27
7662;BME280;30314;48.184;11.510;2023-06-14T03:01:38;95435.28;;;9.99;87.46
7662;BME280;30314;48.184;11.510;2023-06-14T03:04:10;95434.00;;;10.10;87.73
7662;BME280;30314;48.184;11.510;2023-06-14T03:06:39;95429.13;;;10.18;87.22
7662;BME280;30314;48.184;11.510;2023-06-14T03:09:07;95430.56;;;10.24;87.07
7662;BME280;30314;48.184;11.510;2023-06-14T03:11:38;95442.91;;;10.14;87.42
7662;BME280;30314;48.184;11.510;2023-06-14T03:14:05;95451.78;;;10.05;88.30
7662;BME280;30314;48.184;11.510;2023-06-14T03:16:35;95446.81;;;10.03;88.28
7662;BME280;30314;48.184;11.510;2023-06-14T03:19:04;95449.50;;;9.98;89.23
7662;BME280;30314;48.184;11.510;2023-06-14T03:21:32;95451.78;;;9.91;90.08
7662;BME280;30314;48.184;11.510;2023-06-14T03:24:01;95454.09;;;9.92;89.88
7662;BME280;30314;48.184;11.510;2023-06-14T03:26:30;95453.44;;;9.86;89.14
7662;BME280;30314;48.184;11.510;2023-06-14T03:28:59;95453.72;;;9.85;89.68
7662;BME280;30314;48.184;11.510;2023-06-14T03:31:28;95456.81;;;9.73;90.24
7662;BME280;30314;48.184;11.510;2023-06-14T03:34:01;95466.47;;;9.78;90.58
7662;BME280;30314;48.184;11.510;2023-06-14T03:36:28;95464.16;;;9.90;90.01
7662;BME280;30314;48.184;11.510;2023-06-14T03:38:55;95461.53;;;9.90;90.33
7662;BME280;30314;48.184;11.510;2023-06-14T03:41:22;95458.69;;;9.86;90.42
7662;BME280;30314;48.184;11.510;2023-06-14T03:43:50;95461.84;;;9.89;90.28
7662;BME280;30314;48.184;11.510;2023-06-14T03:46:17;95465.13;;;9.80;91.15
7662;BME280;30314;48.184;11.510;2023-06-14T03:48:43;95469.03;;;9.83;91.53
7662;BME280;30314;48.184;11.510;2023-06-14T03:51:10;95467.28;;;9.78;91.85
7662;BME280;30314;48.184;11.510;2023-06-14T03:53:37;95468.03;;;9.79;92.26
7662;BME280;30314;48.184;11.510;2023-06-14T03:56:19;95469.41;;;9.76;92.75
7662;BME280;30314;48.184;11.510;2023-06-14T03:58:46;95469.31;;;9.81;92.92
7662;BME280;30314;48.184;11.510;2023-06-14T04:01:13;95476.38;;;9.86;92.69
7662;BME280;30314;48.184;11.510;2023-06-14T04:03:40;95476.38;;;9.86;91.91
7662;BME280;30314;48.184;11.510;2023-06-14T04:06:07;95478.63;;;9.93;92.54
7662;BME280;30314;48.184;11.510;2023-06-14T04:08:34;95482.06;;;10.07;91.71
7662;BME280;30314;48.184;11.510;2023-06-14T04:11:01;95483.75;;;10.17;91.23
7662;BME280;30314;48.184;11.510;2023-06-14T04:13:28;95492.19;;;10.19;91.30
7662;BME280;30314;48.184;11.510;2023-06-14T04:15:54;95498.13;;;10.25;92.39
7662;BME280;30314;48.184;11.510;2023-06-14T04:18:27;95497.94;;;10.21;92.13
7662;BME280;30314;48.184;11.510;2023-06-14T04:20:55;95503.69;;;10.23;92.76
7662;BME280;30314;48.184;11.510;2023-06-14T04:23:22;95503.53;;;10.34;91.22
7662;BME280;30314;48.184;11.510;2023-06-14T04:25:49;95505.25;;;10.38;91.49
7662;BME280;30314;48.184;11.510;2023-06-14T04:28:17;95506.84;;;10.39;92.50
7662;BME280;30314;48.184;11.510;2023-06-14T04:30:45;95509.00;;;10.51;92.96
7662;BME280;30314;48.184;11.510;2023-06-14T04:33:15;95514.66;;;10.58;92.69
7662;BME280;30314;48.184;11.510;2023-06-14T04:35:42;95510.97;;;10.60;92.50
7662;BME280;30314;48.184;11.510;2023-06-14T04:38:09;95515.25;;;10.69;93.84
7662;BME280;30314;48.184;11.510;2023-06-14T04:40:37;95513.97;;;10.81;93.81
7662;BME280;30314;48.184;11.510;2023-06-14T04:43:11;95517.09;;;10.83;93.23
7662;BME280;30314;48.184;11.510;2023-06-14T04:45:42;95514.84;;;10.90;94.16
7662;BME280;30314;48.184;11.510;2023-06-14T04:48:12;95505.44;;;10.98;95.18
7662;BME280;30314;48.184;11.510;2023-06-14T04:50:39;95510.81;;;11.07;94.39
7662;BME280;30314;48.184;11.510;2023-06-14T04:53:07;95513.84;;;11.14;92.78
7662;BME280;30314;48.184;11.510;2023-06-14T04:55:35;95513.34;;;11.26;93.75
7662;BME280;30314;48.184;11.510;2023-06-14T04:58:03;95512.34;;;11.36;93.44
7662;BME280;30314;48.184;11.510;2023-06-14T05:00:31;95525.63;;;11.45;93.05
7662;BME280;30314;48.184;11.510;2023-06-14T05:02:58;95521.53;;;11.61;95.01
7662;BME280;30314;48.184;11.510;2023-06-14T05:05:32;95518.00;;;11.66;94.08
7662;BME280;30314;48.184;11.510;2023-06-14T05:07:59;95518.53;;;11.77;93.87
7662;BME280;30314;48.184;11.510;2023-06-14T05:10:27;95520.34;;;11.90;93.00
7662;BME280;30314;48.184;11.510;2023-06-14T05:12:53;95509.03;;;11.98;84.77
7662;BME280;30314;48.184;11.510;2023-06-14T05:15:20;95517.16;;;12.34;75.69
7662;BME280;30314;48.184;11.510;2023-06-14T05:17:51;95526.16;;;12.64;74.00
7662;BME280;30314;48.184;11.510;2023-06-14T05:20:22;95531.97;;;12.75;74.65
7662;BME280;30314;48.184;11.510;2023-06-14T05:22:52;95541.69;;;12.97;70.67
7662;BME280;30314;48.184;11.510;2023-06-14T05:25:20;95543.75;;;13.09;69.96
7662;BME280;30314;48.184;11.510;2023-06-14T05:27:47;95536.75;;;13.22;69.19
7662;BME280;30314;48.184;11.510;2023-06-14T05:30:15;95540.22;;;13.32;69.42
7662;BME280;30314;48.184;11.510;2023-06-14T05:32:42;95541.59;;;13.56;65.01
7662;BME280;30314;48.184;11.510;2023-06-14T05:35:08;95548.34;;;13.62;65.12
7662;BME280;30314;48.184;11.510;2023-06-14T05:37:35;95550.50;;;13.77;63.63
7662;BME280;30314;48.184;11.510;2023-06-14T05:40:02;95549.25;;;13.84;63.44
7662;BME280;30314;48.184;11.510;2023-06-14T05:42:32;95543.47;;;13.99;62.09
7662;BME280;30314;48.184;11.510;2023-06-14T05:44:59;95542.34;;;14.18;59.35
7662;BME280;30314;48.184;11.510;2023-06-14T05:47:26;95548.31;;;14.15;59.38
7662;BME280;30314;48.184;11.510;2023-06-14T05:49:54;95501.16;;;13.85;61.04
7662;BME280;30314;48.184;11.510;2023-06-14T05:52:21;95549.06;;;14.24;61.76
7662;BME280;30314;48.184;11.510;2023-06-14T05:54:48;95538.44;;;14.24;61.53
7662;BME280;30314;48.184;11.510;2023-06-14T05:57:15;95532.31;;;14.32;61.73
7662;BME280;30314;48.184;11.510;2023-06-14T05:59:42;95547.47;;;14.41;62.42
7662;BME280;30314;48.184;11.510;2023-06-14T06:02:08;95542.28;;;14.44;62.14
7662;BME280;30314;48.184;11.510;2023-06-14T06:04:35;95546.28;;;14.59;61.23
7662;BME280;30314;48.184;11.510;2023-06-14T06:07:02;95547.69;;;14.65;58.03
7662;BME280;30314;48.184;11.510;2023-06-14T06:09:30;95552.13;;;14.83;57.13
7662;BME280;30314;48.184;11.510;2023-06-14T06:11:56;95554.22;;;14.77;58.47
7662;BME280;30314;48.184;11.510;2023-06-14T06:14:23;95551.56;;;14.77;58.25
7662;BME280;30314;48.184;11.510;2023-06-14T06:16:50;95536.00;;;14.88;56.95
7662;BME280;30314;48.184;11.510;2023-06-14T06:19:19;95555.88;;;14.90;57.60
7662;BME280;30314;48.184;11.510;2023-06-14T06:21:45;95555.75;;;15.08;56.14
7662;BME280;30314;48.184;11.510;2023-06-14T06:24:12;95563.09;;;15.11;56.03
7662;BME280;30314;48.184;11.510;2023-06-14T06:26:39;95559.06;;;15.05;55.88
7662;BME280;30314;48.184;11.510;2023-06-14T06:29:06;95568.09;;;15.13;55.94
7662;BME280;30314;48.184;11.510;2023-06-14T06:31:33;95568.50;;;15.24;56.77
7662;BME280;30314;48.184;11.510;2023-06-14T06:33:59;95558.16;;;15.22;55.46
7662;BME280;30314;48.184;11.510;2023-06-14T06:36:26;95572.06;;;15.28;56.45
7662;BME280;30314;48.184;11.510;2023-06-14T06:38:52;95571.91;;;15.33;55.54
7662;BME280;30314;48.184;11.510;2023-06-14T06:41:19;95562.28;;;15.41;55.49
7662;BME280;30314;48.184;11.510;2023-06-14T06:43:45;95569.34;;;15.45;56.71
7662;BME280;30314;48.184;11.510;2023-06-14T06:46:15;95564.41;;;15.56;56.46
7662;BME280;30314;48.184;11.510;2023-06-14T06:48:42;95570.56;;;15.69;55.62
7662;BME280;30314;48.184;11.510;2023-06-14T06:51:08;95578.06;;;15.88;56.00
7662;BME280;30314;48.184;11.510;2023-06-14T06:53:35;95584.63;;;15.91;54.99
7662;BME280;30314;48.184;11.510;2023-06-14T06:56:09;95582.56;;;15.97;55.41
7662;BME280;30314;48.184;11.510;2023-06-14T06:58:36;95580.47;;;16.02;54.95
7662;BME280;30314;48.184;11.510;2023-06-14T07:01:03;95580.84;;;16.13;54.27
7662;BME280;30314;48.184;11.510;2023-06-14T07:03:29;95582.91;;;16.08;54.42
7662;BME280;30314;48.184;11.510;2023-06-14T07:05:56;95565.63;;;16.14;53.20
7662;BME280;30314;48.184;11.510;2023-06-14T07:08:23;95569.53;;;16.16;53.11
7662;BME280;30314;48.184;11.510;2023-06-14T07:10:49;95576.88;;;16.19;54.07
7662;BME280;30314;48.184;11.510;2023-06-14T07:13:16;95579.19;;;16.21;54.84
7662;BME280;30314;48.184;11.510;2023-06-14T07:15:42;95573.66;;;16.26;54.51
7662;BME280;30314;48.184;11.510;2023-06-14T07:18:09;95583.13;;;16.36;54.23
7662;BME280;30314;48.184;11.510;2023-06-14T07:20:36;95577.03;;;16.48;53.30
7662;BME280;30314;48.184;11.510;2023-06-14T07:23:04;95582.22;;;16.66;51.80
7662;BME280;30314;48.184;11.510;2023-06-14T07:25:32;95584.22;;;16.69;52.10
7662;BME280;30314;48.184;11.510;2023-06-14T07:27:58;95586.00;;;16.77;51.86
7662;BME280;30314;48.184;11.510;2023-06-14T07:30:25;95592.00;;;16.86;53.26
7662;BME280;30314;48.184;11.510;2023-06-14T07:32:53;95582.13;;;16.99;51.70
7662;BME280;30314;48.184;11.510;2023-06-14T07:35:21;95589.13;;;17.29;51.90
7662;BME280;30314;48.184;11.510;2023-06-14T07:37:47;95588.56;;;17.23;50.92
7662;BME280;30314;48.184;11.510;2023-06-14T07:40:14;95593.00;;;17.31;49.60
7662;BME280;30314;48.184;11.510;2023-06-14T07:42:41;95599.13;;;17.44;49.27
7662;BME280;30314;48.184;11.510;2023-06-14T07:45:07;95595.66;;;17.31;50.38
7662;BME280;30314;48.184;11.510;2023-06-14T07:47:34;95594.13;;;17.30;51.52
7662;BME280;30314;48.184;11.510;2023-06-14T07:50:01;95602.44;;;17.41;51.54
7662;BME280;30314;48.184;11.510;2023-06-14T07:52:28;95602.19;;;17.59;48.23
7662;BME280;30314;48.184;11.510;2023-06-14T07:54:54;95602.53;;;17.57;49.34
7662;BME280;30314;48.184;11.510;2023-06-14T07:57:21;95599.97;;;17.61;48.95
7662;BME280;30314;48.184;11.510;2023-06-14T07:59:48;95598.41;;;17.60;49.08
7662;BME280;30314;48.184;11.510;2023-06-14T08:02:14;95593.75;;;17.69;47.02
7662;BME280;30314;48.184;11.510;2023-06-14T08:04:41;95589.69;;;17.88;48.03
7662;BME280;30314;48.184;11.510;2023-06-14T08:07:08;95571.28;;;17.70;47.39
7662;BME280;30314;48.184;11.510;2023-06-14T08:09:35;95590.31;;;17.97;45.96
7662;BME280;30314;48.184;11.510;2023-06-14T08:12:05;95589.63;;;18.00;45.20
7662;BME280;30314;48.184;11.510;2023-06-14T08:14:33;95595.03;;;18.16;44.96
7662;BME280;30314;48.184;11.510;2023-06-14T08:17:00;95598.66;;;18.24;44.29
7662;BME280;30314;48.184;11.510;2023-06-14T08:19:27;95597.41;;;18.34;43.73
7662;BME280;30314;48.184;11.510;2023-06-14T08:21:53;95604.31;;;18.51;44.01
7662;BME280;30314;48.184;11.510;2023-06-14T08:24:22;95612.59;;;18.91;42.95
7662;BME280;30314;48.184;11.510;2023-06-14T08:26:53;95597.28;;;19.23;42.33
7662;BME280;30314;48.184;11.510;2023-06-14T08:29:20;95593.31;;;19.53;43.29
7662;BME280;30314;48.184;11.510;2023-06-14T08:31:47;95604.25;;;19.64;41.97
7662;BME280;30314;48.184;11.510;2023-06-14T08:34:14;95612.97;;;19.61;42.14
7662;BME280;30314;48.184;11.510;2023-06-14T08:36:40;95616.22;;;19.50;42.75
7662;BME280;30314;48.184;11.510;2023-06-14T08:39:07;95613.28;;;19.39;42.61
7662;BME280;30314;48.184;11.510;2023-06-14T08:41:35;95612.94;;;19.41;42.02
7662;BME280;30314;48.184;11.510;2023-06-14T08:44:02;95616.84;;;19.43;41.85
7662;BME280;30314;48.184;11.510;2023-06-14T08:46:32;95599.78;;;19.52;41.04
7662;BME280;30314;48.184;11.510;2023-06-14T08:49:01;95605.25;;;19.39;42.46
7662;BME280;30314;48.184;11.510;2023-06-14T08:51:31;95620.28;;;19.44;43.33
7662;BME280;30314;48.184;11.510;2023-06-14T08:54:01;95607.69;;;19.44;41.85
7662;BME280;30314;48.184;11.510;2023-06-14T08:56:29;95611.63;;;19.51;40.81
7662;BME280;30314;48.184;11.510;2023-06-14T08:58:57;95618.63;;;19.55;40.32
7662;BME280;30314;48.184;11.510;2023-06-14T09:01:27;95615.44;;;19.50;40.42
7662;BME280;30314;48.184;11.510;2023-06-14T09:03:54;95618.19;;;19.53;40.97
7662;BME280;30314;48.184;11.510;2023-06-14T09:06:24;95607.56;;;19.57;40.36
7662;BME280;30314;48.184;11.510;2023-06-14T09:08:51;95606.34;;;19.54;40.33
7662;BME280;30314;48.184;11.510;2023-06-14T09:11:18;95608.00;;;19.59;40.80
7662;BME280;30314;48.184;11.510;2023-06-14T09:13:46;95614.38;;;19.70;41.70
7662;BME280;30314;48.184;11.510;2023-06-14T09:16:13;95608.91;;;19.67;39.55
7662;BME280;30314;48.184;11.510;2023-06-14T09:18:42;95625.41;;;19.85;38.63
7662;BME280;30314;48.184;11.510;2023-06-14T09:21:15;95613.75;;;19.77;39.59
7662;BME280;30314;48.184;11.510;2023-06-14T09:23:44;95621.97;;;19.68;39.99
7662;BME280;30314;48.184;11.510;2023-06-14T09:26:12;95617.91;;;19.75;39.24
7662;BME280;30314;48.184;11.510;2023-06-14T09:28:44;95625.72;;;19.83;38.61
7662;BME280;30314;48.184;11.510;2023-06-14T09:31:15;95629.63;;;19.86;38.14
7662;BME280;30314;48.184;11.510;2023-06-14T09:33:43;95630.13;;;19.92;36.99
7662;BME280;30314;48.184;11.510;2023-06-14T09:36:23;95625.41;;;19.85;38.61
7662;BME280;30314;48.184;11.510;2023-06-14T09:41:31;95628.50;;;20.07;36.85
7662;BME280;30314;48.184;11.510;2023-06-14T09:43:59;95633.72;;;19.99;36.42
7662;BME280;30314;48.184;11.510;2023-06-14T09:46:27;95634.28;;;19.89;37.32
7662;BME280;30314;48.184;11.510;2023-06-14T09:48:56;95628.50;;;19.87;36.52
7662;BME280;30314;48.184;11.510;2023-06-14T09:51:23;95634.78;;;19.95;35.98
7662;BME280;30314;48.184;11.510;2023-06-14T09:53:50;95635.28;;;20.00;36.96
7662;BME280;30314;48.184;11.510;2023-06-14T09:56:23;95638.44;;;20.06;35.20
7662;BME280;30314;48.184;11.510;2023-06-14T09:58:55;95644.25;;;20.28;34.71
7662;BME280;30314;48.184;11.510;2023-06-14T10:01:34;95640.47;;;20.33;36.04
7662;BME280;30314;48.184;11.510;2023-06-14T10:04:05;95630.25;;;20.38;34.98
7662;BME280;30314;48.184;11.510;2023-06-14T10:06:40;95634.13;;;20.41;37.42
7662;BME280;30314;48.184;11.510;2023-06-14T10:09:10;95633.25;;;20.56;36.42
7662;BME280;30314;48.184;11.510;2023-06-14T10:11:38;95631.34;;;20.57;37.26
7662;BME280;30314;48.184;11.510;2023-06-14T10:14:12;95625.38;;;20.64;37.50
7662;BME280;30314;48.184;11.510;2023-06-14T10:16:56;95624.41;;;20.76;36.78
7662;BME280;30314;48.184;11.510;2023-06-14T10:19:48;95622.56;;;20.80;36.56
7662;BME280;30314;48.184;11.510;2023-06-14T10:22:29;95628.78;;;20.84;36.72
7662;BME280;30314;48.184;11.510;2023-06-14T10:24:56;95627.88;;;21.00;37.79
7662;BME280;30314;48.184;11.510;2023-06-14T10:27:23;95622.81;;;20.94;36.65
7662;BME280;30314;48.184;11.510;2023-06-14T10:32:21;95619.59;;;21.35;35.05
7662;BME280;30314;48.184;11.510;2023-06-14T10:34:55;95597.34;;;21.35;35.65
7662;BME280;30314;48.184;11.510;2023-06-14T10:37:22;95620.38;;;21.63;33.61
7662;BME280;30314;48.184;11.510;2023-06-14T10:39:50;95622.53;;;21.80;32.69
7662;BME280;30314;48.184;11.510;2023-06-14T10:42:17;95610.97;;;21.76;34.98
7662;BME280;30314;48.184;11.510;2023-06-14T10:44:50;95620.81;;;21.95;34.56
7662;BME280;30314;48.184;11.510;2023-06-14T10:47:32;95615.50;;;22.03;33.16
7662;BME280;30314;48.184;11.510;2023-06-14T10:52:28;95624.41;;;22.41;34.69
7662;BME280;30314;48.184;11.510;2023-06-14T10:55:00;95603.16;;;22.32;32.73
7662;BME280;30314;48.184;11.510;2023-06-14T10:57:27;95626.09;;;22.57;33.97
7662;BME280;30314;48.184;11.510;2023-06-14T10:59:54;95609.44;;;22.44;32.88
7662;BME280;30314;48.184;11.510;2023-06-14T11:02:30;95627.28;;;22.59;34.20
7662;BME280;30314;48.184;11.510;2023-06-14T11:05:08;95622.00;;;22.70;33.73
7662;BME280;30314;48.184;11.510;2023-06-14T11:10:37;95617.88;;;22.80;31.90
7662;BME280;30314;48.184;11.510;2023-06-14T11:13:05;95611.34;;;22.85;31.43
7662;BME280;30314;48.184;11.510;2023-06-14T11:15:33;95615.31;;;22.94;31.90
7662;BME280;30314;48.184;11.510;2023-06-14T11:18:01;95608.72;;;22.92;30.93
7662;BME280;30314;48.184;11.510;2023-06-14T11:20:31;95595.38;;;23.06;31.47
7662;BME280;30314;48.184;11.510;2023-06-14T11:22:58;95605.91;;;23.22;30.86
7662;BME280;30314;48.184;11.510;2023-06-14T11:25:26;95612.44;;;23.21;31.50
7662;BME280;30314;48.184;11.510;2023-06-14T11:27:54;95601.31;;;23.27;30.66
7662;BME280;30314;48.184;11.510;2023-06-14T11:30:24;95607.81;;;23.22;30.53
7662;BME280;30314;48.184;11.510;2023-06-14T11:32:52;95613.31;;;23.33;30.43
7662;BME280;30314;48.184;11.510;2023-06-14T11:35:24;95615.59;;;23.34;29.85
7662;BME280;30314;48.184;11.510;2023-06-14T11:37:55;95600.13;;;23.24;28.99
7662;BME280;30314;48.184;11.510;2023-06-14T11:40:24;95612.31;;;23.07;30.27
7662;BME280;30314;48.184;11.510;2023-06-14T11:43:01;95598.09;;;23.10;30.82
7662;BME280;30314;48.184;11.510;2023-06-14T11:45:29;95597.44;;;23.24;29.85
7662;BME280;30314;48.184;11.510;2023-06-14T11:47:58;95592.44;;;23.22;30.21
7662;BME280;30314;48.184;11.510;2023-06-14T11:50:26;95593.84;;;23.05;31.28
7662;BME280;30314;48.184;11.510;2023-06-14T11:55:21;95592.03;;;22.72;30.81
7662;BME280;30314;48.184;11.510;2023-06-14T11:57:48;95599.53;;;22.51;30.88
7662;BME280;30314;48.184;11.510;2023-06-14T12:00:15;95587.63;;;22.18;32.33
7662;BME280;30314;48.184;11.510;2023-06-14T12:02:43;95583.63;;;22.05;32.27
7662;BME280;30314;48.184;11.510;2023-06-14T12:05:20;95589.19;;;21.85;33.16
7662;BME280;30314;48.184;11.510;2023-06-14T12:07:48;95593.97;;;21.68;31.62
7662;BME280;30314;48.184;11.510;2023-06-14T12:10:14;95593.81;;;21.58;32.57
7662;BME280;30314;48.184;11.510;2023-06-14T12:12:42;95591.50;;;21.56;33.63
7662;BME280;30314;48.184;11.510;2023-06-14T12:15:09;95588.63;;;21.72;33.46
7662;BME280;30314;48.184;11.510;2023-06-14T12:17:39;95588.84;;;21.90;33.69
7662;BME280;30314;48.184;11.510;2023-06-14T12:20:13;95583.97;;;22.00;32.88
7662;BME280;30314;48.184;11.510;2023-06-14T12:22:54;95590.91;;;22.01;34.20
7662;BME280;30314;48.184;11.510;2023-06-14T12:25:27;95584.44;;;22.05;33.96
7662;BME280;30314;48.184;11.510;2023-06-14T12:27:54;95597.63;;;22.18;32.86
7662;BME280;30314;48.184;11.510;2023-06-14T12:30:21;95593.09;;;22.25;32.59
7662;BME280;30314;48.184;11.510;2023-06-14T12:32:48;95589.34;;;22.34;32.49
7662;BME280;30314;48.184;11.510;2023-06-14T12:35:15;95594.72;;;22.34;31.40
7662;BME280;30314;48.184;11.510;2023-06-14T12:37:42;95578.53;;;22.30;32.31
7662;BME280;30314;48.184;11.510;2023-06-14T12:40:09;95585.44;;;22.28;32.13
7662;BME280;30314;48.184;11.510;2023-06-14T12:42:37;95586.66;;;22.34;30.36
7662;BME280;30314;48.184;11.510;2023-06-14T12:45:04;95571.63;;;22.29;31.20
7662;BME280;30314;48.184;11.510;2023-06-14T12:47:31;95580.13;;;22.35;31.24
7662;BME280;30314;48.184;11.510;2023-06-14T12:49:58;95578.09;;;22.24;32.11
7662;BME280;30314;48.184;11.510;2023-06-14T12:52:25;95587.66;;;22.22;32.43
7662;BME280;30314;48.184;11.510;2023-06-14T12:54:51;95587.31;;;22.23;31.29
7662;BME280;30314;48.184;11.510;2023-06-14T12:57:18;95559.66;;;21.89;30.80
7662;BME280;30314;48.184;11.510;2023-06-14T12:59:44;95597.81;;;22.02;32.63
7662;BME280;30314;48.184;11.510;2023-06-14T13:02:13;95589.53;;;21.83;32.49
7662;BME280;30314;48.184;11.510;2023-06-14T13:04:40;95600.56;;;21.75;32.81
7662;BME280;30314;48.184;11.510;2023-06-14T13:07:07;95600.75;;;21.59;33.83
7662;BME280;30314;48.184;11.510;2023-06-14T13:09:33;95606.03;;;21.51;33.55
7662;BME280;30314;48.184;11.510;2023-06-14T13:12:00;95572.91;;;21.17;33.47
7662;BME280;30314;48.184;11.510;2023-06-14T13:14:27;95602.44;;;21.44;32.36
7662;BME280;30314;48.184;11.510;2023-06-14T13:16:54;95590.97;;;21.47;32.09
7662;BME280;30314;48.184;11.510;2023-06-14T13:19:21;95585.25;;;21.48;31.30
7662;BME280;30314;48.184;11.510;2023-06-14T13:21:48;95586.16;;;21.60;32.14
7662;BME280;30314;48.184;11.510;2023-06-14T13:24:15;95587.81;;;21.68;33.30